Time;durP1;ratioP1;P1;durP2;ratioP2;P2;SDS_P1;SDS_P2;PMS_P1;PMS_P2;Temp;Humidity;BMP_temperature;BMP_pressure;BME280_temperature;BME280_humidity;BME280_pressure;Samples;Min_cycle;Max_cycle;Signal;HPM_P1;HPM_P2
2022/03/01 00:01:24;;;;;;;15.47;10.00;;;2.90;99.90;;;;;;6340037;22;20210;-84
2022/03/01 00:03:49;;;;;;;16.93;10.33;;;2.80;99.90;;;;;;6339948;22;20639;-84
2022/03/01 00:06:15;;;;;;;15.23;9.57;;;2.80;99.90;;;;;;6339826;22;20162;-84
2022/03/01 00:08:40;;;;;;;14.30;8.53;;;2.80;99.90;;;;;;6342429;22;20149;-83
2022/03/01 00:11:06;;;;;;;18.97;10.20;;;2.80;99.90;;;;;;6340326;22;20158;-84
2022/03/01 00:13:32;;;;;;;14.53;9.23;;;2.80;99.90;;;;;;6343048;22;20176;-85
2022/03/01 00:15:57;;;;;;;18.13;10.13;;;2.80;99.90;;;;;;6340703;22;20157;-85
2022/03/01 00:18:23;;;;;;;21.93;10.17;;;2.80;99.90;;;;;;6339472;22;20172;-85
2022/03/01 00:20:48;;;;;;;18.43;10.13;;;2.80;99.90;;;;;;6339826;22;20168;-84
2022/03/01 00:23:14;;;;;;;17.67;9.83;;;2.80;99.90;;;;;;6340162;22;20631;-84
2022/03/01 00:25:39;;;;;;;18.50;10.10;;;2.80;99.90;;;;;;6341884;22;20161;-83
2022/03/01 00:28:05;;;;;;;17.43;8.93;;;2.80;99.90;;;;;;6340973;22;20314;-84
2022/03/01 00:30:30;;;;;;;16.83;9.57;;;2.80;99.90;;;;;;6342302;22;20501;-83
2022/03/01 00:32:56;;;;;;;15.53;9.53;;;2.80;99.90;;;;;;6341162;22;20713;-84
2022/03/01 00:35:21;;;;;;;15.43;9.90;;;4.40;99.90;;;;;;6341392;22;20168;-83
2022/03/01 00:37:47;;;;;;;14.57;8.70;;;2.80;99.90;;;;;;6341307;22;20167;-84
2022/03/01 00:40:13;;;;;;;13.27;8.57;;;2.80;99.90;;;;;;6342016;22;20161;-86
2022/03/01 00:42:38;;;;;;;14.47;9.30;;;3.00;99.90;;;;;;6341524;22;20178;-83
2022/03/01 00:45:05;;;;;;;17.40;9.70;;;3.00;99.90;;;;;;6343101;22;20473;-83
2022/03/01 00:47:30;;;;;;;12.87;9.27;;;3.00;99.90;;;;;;6342934;22;20188;-83
2022/03/01 00:49:57;;;;;;;17.10;9.87;;;3.00;99.90;;;;;;6345203;22;20655;-84
2022/03/01 00:52:23;;;;;;;20.70;9.80;;;3.00;99.90;;;;;;6343973;22;20184;-83
2022/03/01 00:54:52;;;;;;;15.00;9.67;;;2.80;99.90;;;;;;6344562;22;20154;-83
2022/03/01 00:57:18;;;;;;;19.90;9.50;;;2.70;99.90;;;;;;6342960;22;20153;-85
2022/03/01 00:59:43;;;;;;;16.13;9.67;;;2.60;99.90;;;;;;6339534;22;20170;-84
2022/03/01 01:02:09;;;;;;;17.00;9.93;;;2.50;99.90;;;;;;6339594;22;20262;-83
2022/03/01 01:04:34;;;;;;;17.53;10.37;;;2.30;99.90;;;;;;6339940;22;20156;-83
2022/03/01 01:07:00;;;;;;;16.93;10.20;;;2.20;99.90;;;;;;6340652;22;20184;-84
2022/03/01 01:09:25;;;;;;;17.30;10.60;;;2.00;99.90;;;;;;6339822;22;20160;-83
2022/03/01 01:11:51;;;;;;;14.43;9.30;;;1.90;99.90;;;;;;6342998;22;20155;-83
2022/03/01 01:14:19;;;;;;;14.23;9.50;;;1.90;99.90;;;;;;6343446;22;20158;-83
2022/03/01 01:16:45;;;;;;;17.27;10.13;;;1.80;99.90;;;;;;6342346;22;20160;-83
2022/03/01 01:19:10;;;;;;;16.17;10.00;;;1.70;99.90;;;;;;6345550;22;20163;-83
2022/03/01 01:24:20;;;;;;;17.20;10.00;;;1.50;99.90;;;;;;6348143;22;20223;-83
2022/03/01 01:26:46;;;;;;;18.03;10.40;;;1.50;99.90;;;;;;6345668;22;20516;-82
2022/03/01 01:29:11;;;;;;;17.57;9.27;;;1.40;99.90;;;;;;6345571;22;20209;-82
2022/03/01 01:31:37;;;;;;;18.30;10.13;;;1.30;99.90;;;;;;6345361;22;20155;-83
2022/03/01 01:34:03;;;;;;;16.77;10.03;;;1.30;99.90;;;;;;6344379;22;20158;-83
2022/03/01 01:36:29;;;;;;;15.13;9.20;;;1.20;99.90;;;;;;6345492;22;20186;-83
2022/03/01 01:38:55;;;;;;;15.13;8.97;;;1.20;99.90;;;;;;6344925;22;20191;-83
2022/03/01 01:41:21;;;;;;;17.23;9.77;;;1.10;99.90;;;;;;6345209;22;20166;-83
2022/03/01 01:43:47;;;;;;;16.80;9.80;;;1.10;99.90;;;;;;6346020;22;20180;-83
2022/03/01 01:46:12;;;;;;;20.63;9.73;;;2.80;99.90;;;;;;6346549;22;20213;-83
2022/03/01 01:48:38;;;;;;;15.27;9.57;;;1.30;99.90;;;;;;6343927;22;20198;-83
2022/03/01 01:51:04;;;;;;;15.70;9.20;;;1.20;99.90;;;;;;6343340;22;20153;-84
2022/03/01 01:53:29;;;;;;;16.63;10.23;;;1.30;99.90;;;;;;6344862;22;20179;-83
2022/03/01 01:55:55;;;;;;;16.03;9.73;;;1.30;99.90;;;;;;6342082;22;20156;-84
2022/03/01 01:58:21;;;;;;;15.60;9.30;;;1.30;99.90;;;;;;6342258;22;20500;-82
2022/03/01 02:00:46;;;;;;;13.47;9.13;;;1.30;99.90;;;;;;6342131;22;20606;-85
2022/03/01 02:03:12;;;;;;;14.63;9.97;;;1.30;99.90;;;;;;6343824;22;20176;-82
2022/03/01 02:05:37;;;;;;;16.70;9.47;;;1.30;99.90;;;;;;6341721;22;20163;-84
2022/03/01 02:08:03;;;;;;;19.93;9.77;;;1.20;99.90;;;;;;6341643;22;20222;-85
2022/03/01 02:10:29;;;;;;;14.00;9.10;;;1.20;99.90;;;;;;6342560;22;20199;-84
2022/03/01 02:12:58;;;;;;;19.43;9.60;;;1.10;99.90;;;;;;6346654;22;20524;-84
2022/03/01 02:15:24;;;;;;;16.03;10.23;;;1.10;99.90;;;;;;6350107;22;20155;-83
2022/03/01 02:17:49;;;;;;;17.10;10.57;;;1.10;99.90;;;;;;6348605;22;20392;-84
2022/03/01 02:20:20;;;;;;;17.73;9.77;;;1.10;99.90;;;;;;6348029;22;20453;-85
2022/03/01 02:22:51;;;;;;;16.60;9.70;;;1.10;99.90;;;;;;6342976;22;20175;-86
2022/03/01 02:25:16;;;;;;;19.37;9.17;;;1.10;99.90;;;;;;6341999;22;20395;-83
2022/03/01 02:27:42;;;;;;;15.33;9.40;;;1.10;99.90;;;;;;6341842;22;20982;-84
2022/03/01 02:30:09;;;;;;;15.00;9.67;;;1.10;99.90;;;;;;6341938;22;20491;-84
2022/03/01 02:32:36;;;;;;;17.90;9.90;;;1.10;99.90;;;;;;6343630;22;20186;-84
2022/03/01 02:35:02;;;;;;;17.60;9.63;;;1.10;99.90;;;;;;6342030;22;20497;-85
2022/03/01 02:37:28;;;;;;;16.10;9.10;;;1.00;99.90;;;;;;6317411;22;20456;-84
2022/03/01 02:39:53;;;;;;;16.70;9.97;;;1.00;99.90;;;;;;6343302;22;20843;-84
2022/03/01 02:42:23;;;;;;;18.37;9.50;;;1.00;99.90;;;;;;6343199;22;20183;-85
2022/03/01 02:44:49;;;;;;;18.73;10.23;;;0.90;99.90;;;;;;6343346;22;20212;-84
2022/03/01 02:47:16;;;;;;;14.70;10.07;;;0.90;99.90;;;;;;6343212;22;20423;-84
2022/03/01 02:49:42;;;;;;;15.57;9.80;;;0.80;99.90;;;;;;6343963;22;20463;-83
2022/03/01 02:52:08;;;;;;;15.73;9.50;;;0.80;99.90;;;;;;6340779;22;20410;-84
2022/03/01 02:54:34;;;;;;;14.97;9.70;;;0.80;99.90;;;;;;6341483;22;20435;-83
2022/03/01 02:57:01;;;;;;;16.43;11.00;;;0.70;99.90;;;;;;6343541;22;20154;-83
2022/03/01 02:59:28;;;;;;;19.40;10.53;;;0.70;99.90;;;;;;6342852;22;20163;-83
2022/03/01 03:01:55;;;;;;;16.40;10.30;;;0.80;99.90;;;;;;6343590;22;20964;-83
2022/03/01 03:04:21;;;;;;;20.60;10.27;;;0.70;99.90;;;;;;6345150;22;20405;-84
2022/03/01 03:06:47;;;;;;;18.67;9.57;;;0.70;99.90;;;;;;6345132;22;20928;-85
2022/03/01 03:09:13;;;;;;;16.70;9.50;;;0.70;99.90;;;;;;6343694;22;20604;-85
2022/03/01 03:11:38;;;;;;;15.07;9.97;;;0.60;99.90;;;;;;6344712;22;20157;-83
2022/03/01 03:14:05;;;;;;;20.30;10.20;;;0.60;99.90;;;;;;6344659;22;20158;-83
2022/03/01 03:16:30;;;;;;;17.37;10.37;;;0.60;99.90;;;;;;6342851;22;20162;-83
2022/03/01 03:18:56;;;;;;;17.43;10.00;;;0.60;99.90;;;;;;6342776;22;20409;-83
2022/03/01 03:21:22;;;;;;;16.70;9.37;;;0.60;99.90;;;;;;6340181;22;20474;-85
2022/03/01 03:23:47;;;;;;;17.97;10.03;;;0.60;99.90;;;;;;6341372;22;20183;-83
2022/03/01 03:26:13;;;;;;;18.20;9.63;;;0.60;99.90;;;;;;6341312;22;20607;-84
2022/03/01 03:28:38;;;;;;;13.47;8.50;;;0.60;99.90;;;;;;6340954;22;20161;-83
2022/03/01 03:31:04;;;;;;;19.47;10.37;;;0.60;99.90;;;;;;6340346;22;20533;-84
2022/03/01 03:33:30;;;;;;;14.23;9.17;;;0.70;99.90;;;;;;6341246;22;20191;-85
2022/03/01 03:35:56;;;;;;;18.40;9.53;;;0.80;99.90;;;;;;6342791;22;20146;-84
2022/03/01 03:38:23;;;;;;;15.00;9.60;;;0.90;99.90;;;;;;6339416;22;20159;-84
2022/03/01 03:40:49;;;;;;;16.60;9.47;;;0.90;99.90;;;;;;6340938;22;20385;-84
2022/03/01 03:43:14;;;;;;;16.77;9.67;;;1.00;99.90;;;;;;6342100;22;20412;-84
2022/03/01 03:45:40;;;;;;;15.37;7.07;;;1.00;99.90;;;;;;6339683;22;20271;-84
2022/03/01 03:48:06;;;;;;;22.40;9.27;;;1.10;99.90;;;;;;6339853;22;20186;-83
2022/03/01 03:50:32;;;;;;;16.70;9.97;;;1.10;99.90;;;;;;6340604;22;20154;-84
2022/03/01 03:52:57;;;;;;;15.10;9.87;;;1.20;99.90;;;;;;6340925;22;20178;-84
2022/03/01 03:55:23;;;;;;;17.83;11.07;;;1.20;99.90;;;;;;6341053;22;20222;-83
2022/03/01 03:57:49;;;;;;;15.87;9.97;;;1.20;99.90;;;;;;6340953;22;20610;-83
2022/03/01 04:00:16;;;;;;;17.10;10.23;;;1.20;99.90;;;;;;6340592;22;20464;-84
2022/03/01 04:02:44;;;;;;;21.53;9.97;;;1.20;99.90;;;;;;6340437;22;20185;-83
2022/03/01 04:05:12;;;;;;;14.10;9.63;;;1.10;99.90;;;;;;6341007;22;20383;-81
2022/03/01 04:07:39;;;;;;;14.43;8.67;;;1.20;99.90;;;;;;6341636;22;20751;-84
2022/03/01 04:10:05;;;;;;;17.10;10.30;;;1.20;99.90;;;;;;6340434;22;20379;-84
2022/03/01 04:12:31;;;;;;;19.63;10.00;;;1.20;99.90;;;;;;6340680;22;20404;-83
2022/03/01 04:14:57;;;;;;;20.77;10.00;;;1.10;99.90;;;;;;6340367;22;20500;-83
2022/03/01 04:17:22;;;;;;;17.93;10.03;;;1.20;99.90;;;;;;6340002;22;20385;-84
2022/03/01 04:19:48;;;;;;;18.23;9.97;;;1.20;99.90;;;;;;6340200;22;20150;-84
2022/03/01 04:22:13;;;;;;;17.60;10.47;;;1.20;99.90;;;;;;6338593;22;20178;-83
2022/03/01 04:24:39;;;;;;;17.70;9.47;;;1.20;99.90;;;;;;6340387;22;20154;-83
2022/03/01 04:27:05;;;;;;;13.53;8.40;;;1.30;99.90;;;;;;6338703;22;20182;-83
2022/03/01 04:29:30;;;;;;;18.17;10.00;;;1.00;99.90;;;;;;6339077;22;20159;-83
2022/03/01 04:31:56;;;;;;;19.10;8.80;;;1.30;99.90;;;;;;6338489;22;20182;-83
2022/03/01 04:34:21;;;;;;;14.07;6.77;;;1.30;99.90;;;;;;6339299;22;20592;-84
2022/03/01 04:36:47;;;;;;;16.80;8.80;;;1.40;99.90;;;;;;6339062;22;20163;-83
2022/03/01 04:39:13;;;;;;;16.90;9.17;;;1.40;99.90;;;;;;6338826;22;20208;-83
2022/03/01 04:41:38;;;;;;;15.50;9.50;;;1.40;99.90;;;;;;6340694;22;20172;-83
2022/03/01 04:44:05;;;;;;;14.47;8.60;;;1.40;99.90;;;;;;6338468;22;20239;-84
2022/03/01 04:46:31;;;;;;;13.03;7.43;;;1.50;99.90;;;;;;6338563;22;20182;-84
2022/03/01 04:48:57;;;;;;;11.83;7.07;;;1.50;99.90;;;;;;6338681;22;20721;-83
2022/03/01 04:51:23;;;;;;;16.47;9.63;;;1.50;99.90;;;;;;6339183;22;20384;-84
2022/03/01 04:53:49;;;;;;;15.43;9.73;;;1.60;99.90;;;;;;6338514;22;20490;-84
2022/03/01 04:56:15;;;;;;;16.20;9.50;;;1.50;99.90;;;;;;6341187;22;20150;-81
2022/03/01 04:58:41;;;;;;;12.77;8.67;;;1.60;99.90;;;;;;6340192;22;20418;-84
2022/03/01 05:01:06;;;;;;;13.87;8.37;;;1.50;99.90;;;;;;6339502;22;20381;-83
2022/03/01 05:03:32;;;;;;;17.10;9.63;;;1.60;99.90;;;;;;6338868;22;20178;-84
2022/03/01 05:05:58;;;;;;;13.77;8.00;;;1.60;99.90;;;;;;6338963;22;20579;-83
2022/03/01 05:08:24;;;;;;;15.73;9.07;;;1.60;99.90;;;;;;6340986;22;20181;-85
2022/03/01 05:10:49;;;;;;;17.43;8.50;;;1.50;99.90;;;;;;6313047;22;20377;-84
2022/03/01 05:13:15;;;;;;;13.67;8.37;;;1.60;99.90;;;;;;6339100;22;20256;-82
2022/03/01 05:15:40;;;;;;;16.33;9.97;;;1.60;99.90;;;;;;6339230;22;20163;-83
2022/03/01 05:18:06;;;;;;;15.63;9.40;;;1.70;99.90;;;;;;6339648;22;20162;-84
2022/03/01 05:20:31;;;;;;;14.40;9.20;;;1.70;99.90;;;;;;6338767;22;20544;-84
2022/03/01 05:22:57;;;;;;;16.33;9.07;;;1.70;99.90;;;;;;6339082;22;20256;-84
2022/03/01 05:25:23;;;;;;;12.50;7.30;;;1.70;99.90;;;;;;6339326;22;20218;-83
2022/03/01 05:27:51;;;;;;;7.87;5.10;;;1.70;99.90;;;;;;6339164;22;20178;-83
2022/03/01 05:30:18;;;;;;;14.30;8.57;;;1.70;99.90;;;;;;6340155;22;20381;-83
2022/03/01 05:32:46;;;;;;;16.20;8.87;;;1.80;99.90;;;;;;6339758;22;20557;-86
2022/03/01 05:35:14;;;;;;;17.63;9.47;;;1.80;99.90;;;;;;6339794;22;20381;-84
2022/03/01 05:37:41;;;;;;;15.30;8.90;;;1.80;99.90;;;;;;6339274;22;20376;-83
2022/03/01 05:40:08;;;;;;;17.87;9.23;;;1.90;99.90;;;;;;6342241;22;20368;-83
2022/03/01 05:42:35;;;;;;;13.87;9.33;;;1.90;99.90;;;;;;6339409;22;20511;-84
2022/03/01 05:45:01;;;;;;;14.50;8.90;;;1.90;99.90;;;;;;6339731;22;20375;-82
2022/03/01 05:47:27;;;;;;;14.87;7.97;;;1.90;99.90;;;;;;6339841;22;20424;-84
2022/03/01 05:49:56;;;;;;;10.07;5.37;;;2.00;99.90;;;;;;6339429;22;20169;-83
2022/03/01 05:52:22;;;;;;;19.10;9.80;;;2.00;99.90;;;;;;6339153;22;20175;-84
2022/03/01 05:54:48;;;;;;;9.97;6.80;;;1.90;99.90;;;;;;6314083;22;20369;-85
2022/03/01 05:57:13;;;;;;;13.97;8.07;;;1.90;99.90;;;;;;6340493;22;20464;-85
2022/03/01 05:59:39;;;;;;;15.87;9.20;;;2.00;99.90;;;;;;6340527;22;20665;-83
2022/03/01 06:02:05;;;;;;;12.70;8.17;;;1.90;99.90;;;;;;6342358;22;20199;-84
2022/03/01 06:04:30;;;;;;;17.03;9.60;;;3.70;99.90;;;;;;6341452;22;20159;-85
2022/03/01 06:06:56;;;;;;;14.70;7.53;;;2.00;99.90;;;;;;6343255;22;20186;-84
2022/03/01 06:09:21;;;;;;;14.90;8.87;;;2.00;99.90;;;;;;6342138;22;20490;-85
2022/03/01 06:11:47;;;;;;;13.97;7.63;;;1.90;99.90;;;;;;6339187;22;20161;-83
2022/03/01 06:14:12;;;;;;;13.70;7.97;;;1.80;99.90;;;;;;6339223;22;20241;-83
2022/03/01 06:16:38;;;;;;;14.27;8.40;;;1.90;99.90;;;;;;6339580;22;20190;-82
2022/03/01 06:19:04;;;;;;;15.43;9.20;;;1.90;99.90;;;;;;6339713;22;20155;-83
2022/03/01 06:21:30;;;;;;;15.77;9.47;;;1.90;99.90;;;;;;6341029;22;20665;-84
2022/03/01 06:23:56;;;;;;;13.57;8.57;;;1.90;99.90;;;;;;6313518;22;20220;-84
2022/03/01 06:26:22;;;;;;;12.83;7.93;;;1.90;99.90;;;;;;6339648;22;20477;-84
2022/03/01 06:28:49;;;;;;;15.27;9.27;;;1.90;99.90;;;;;;6339399;22;20854;-83
2022/03/01 06:31:15;;;;;;;14.70;9.43;;;1.80;99.90;;;;;;6339799;22;20234;-84
2022/03/01 06:33:40;;;;;;;17.67;9.63;;;1.90;99.90;;;;;;6339564;22;20765;-83
2022/03/01 06:36:06;;;;;;;20.13;10.00;;;1.80;99.90;;;;;;6339615;22;20158;-83
2022/03/01 06:38:31;;;;;;;16.83;9.80;;;1.70;99.90;;;;;;6339849;22;20159;-84
2022/03/01 06:40:57;;;;;;;16.27;9.97;;;1.80;99.90;;;;;;6340267;22;20163;-83
2022/03/01 06:43:24;;;;;;;13.13;9.13;;;1.80;99.90;;;;;;6341949;22;20174;-83
2022/03/01 06:45:49;;;;;;;15.50;9.33;;;1.80;99.90;;;;;;6340011;22;20546;-85
2022/03/01 06:48:15;;;;;;;15.70;9.80;;;1.80;99.90;;;;;;6340050;22;20424;-83
2022/03/01 06:50:41;;;;;;;17.10;9.63;;;1.80;99.90;;;;;;6341037;22;20209;-84
2022/03/01 06:53:07;;;;;;;14.43;9.00;;;1.80;99.90;;;;;;6340084;22;20257;-83
2022/03/01 06:55:33;;;;;;;15.20;8.87;;;1.70;99.90;;;;;;6340125;22;20600;-83
2022/03/01 06:57:59;;;;;;;16.00;9.50;;;1.80;99.90;;;;;;6339704;22;20163;-84
2022/03/01 07:00:25;;;;;;;13.50;8.50;;;1.70;99.90;;;;;;6340210;22;20423;-84
2022/03/01 07:02:51;;;;;;;14.43;9.27;;;1.80;99.90;;;;;;6341349;22;20634;-83
2022/03/01 07:05:17;;;;;;;12.50;7.73;;;1.80;99.90;;;;;;6343389;22;20390;-83
2022/03/01 07:07:43;;;;;;;14.70;9.17;;;1.80;99.90;;;;;;6343795;22;20191;-84
2022/03/01 07:10:12;;;;;;;14.33;8.97;;;1.80;99.90;;;;;;6345438;22;20835;-85
2022/03/01 07:12:39;;;;;;;14.53;8.60;;;1.80;99.90;;;;;;6343787;22;20482;-85
2022/03/01 07:15:05;;;;;;;14.17;9.23;;;1.80;99.90;;;;;;6344394;22;20389;-83
2022/03/01 07:17:31;;;;;;;15.07;8.57;;;1.80;99.90;;;;;;6343813;22;20389;-84
2022/03/01 07:19:57;;;;;;;13.30;7.73;;;1.80;99.90;;;;;;6344726;22;20392;-86
2022/03/01 07:22:23;;;;;;;15.67;8.83;;;1.80;99.90;;;;;;6344985;22;20182;-85
2022/03/01 07:24:49;;;;;;;13.47;8.20;;;1.90;99.90;;;;;;6342791;22;20395;-85
2022/03/01 07:27:14;;;;;;;14.80;7.70;;;1.90;99.90;;;;;;6342434;22;20689;-85
2022/03/01 07:29:40;;;;;;;16.20;9.80;;;1.80;99.90;;;;;;6342572;22;20186;-84
2022/03/01 07:32:07;;;;;;;18.00;9.10;;;1.90;99.90;;;;;;6341749;22;20207;-85
2022/03/01 07:34:33;;;;;;;18.63;8.90;;;1.90;99.90;;;;;;6341417;22;20210;-85
2022/03/01 07:37:00;;;;;;;15.63;9.00;;;1.90;99.90;;;;;;6344306;22;20859;-85
2022/03/01 07:39:25;;;;;;;15.50;9.90;;;1.90;99.90;;;;;;6342590;22;20465;-85
2022/03/01 07:41:51;;;;;;;13.30;8.97;;;2.00;99.90;;;;;;6342492;22;20676;-85
2022/03/01 07:44:18;;;;;;;16.70;8.93;;;2.00;99.90;;;;;;6341514;22;20250;-85
2022/03/01 07:46:44;;;;;;;13.83;8.53;;;2.00;99.90;;;;;;6343914;22;20406;-86
2022/03/01 07:49:10;;;;;;;15.03;9.17;;;2.10;99.90;;;;;;6341810;22;20706;-86
2022/03/01 07:51:36;;;;;;;15.40;9.23;;;2.10;99.90;;;;;;6342796;22;20182;-86
2022/03/01 07:54:02;;;;;;;17.10;9.97;;;2.20;99.90;;;;;;6342555;22;20181;-85
2022/03/01 07:56:27;;;;;;;14.03;8.83;;;2.30;99.90;;;;;;6342364;22;20377;-85
2022/03/01 07:58:53;;;;;;;15.27;8.30;;;2.40;99.90;;;;;;6341566;22;20480;-85
2022/03/01 08:01:20;;;;;;;15.40;8.37;;;2.50;99.90;;;;;;6342298;22;20163;-85
2022/03/01 08:03:46;;;;;;;19.57;10.37;;;2.60;99.90;;;;;;6341530;22;20176;-86
2022/03/01 08:06:11;;;;;;;15.83;9.23;;;2.70;99.90;;;;;;6338568;22;20434;-84
2022/03/01 08:08:37;;;;;;;14.57;6.60;;;2.80;99.90;;;;;;6338377;22;20237;-84
2022/03/01 08:11:04;;;;;;;11.83;6.30;;;2.90;99.90;;;;;;6338485;22;20158;-84
2022/03/01 08:13:30;;;;;;;17.00;7.77;;;2.90;99.90;;;;;;6338571;22;20186;-84
2022/03/01 08:15:56;;;;;;;15.90;9.00;;;3.10;99.90;;;;;;6338589;22;20383;-84
2022/03/01 08:18:21;;;;;;;16.63;8.60;;;3.20;99.90;;;;;;6338467;22;20389;-82
2022/03/01 08:20:47;;;;;;;13.07;7.10;;;3.30;99.90;;;;;;6338509;22;20168;-84
2022/03/01 08:23:13;;;;;;;8.30;5.00;;;3.40;99.90;;;;;;6338566;22;20179;-83
2022/03/01 08:25:38;;;;;;;12.57;7.17;;;3.40;99.90;;;;;;6338849;22;20160;-84
2022/03/01 08:28:04;;;;;;;15.60;9.73;;;3.50;99.90;;;;;;6338239;22;20641;-82
2022/03/01 08:30:30;;;;;;;18.93;8.73;;;3.50;99.90;;;;;;6339315;22;20160;-83
2022/03/01 08:32:56;;;;;;;15.70;9.47;;;3.50;99.90;;;;;;6338552;22;20260;-84
2022/03/01 08:35:22;;;;;;;10.67;6.93;;;3.60;99.90;;;;;;6339065;22;20598;-84
2022/03/01 08:37:48;;;;;;;16.90;9.77;;;3.60;99.90;;;;;;6339231;22;20167;-84
2022/03/01 08:40:14;;;;;;;15.60;8.23;;;3.80;99.90;;;;;;6340371;22;20187;-86
2022/03/01 08:42:41;;;;;;;15.13;9.30;;;3.70;99.90;;;;;;6340725;22;20631;-85
2022/03/01 08:45:08;;;;;;;18.77;8.30;;;3.90;99.90;;;;;;6342350;22;20149;-86
2022/03/01 08:47:33;;;;;;;13.97;9.00;;;4.00;99.90;;;;;;6340558;22;20706;-83
2022/03/01 08:50:00;;;;;;;14.57;9.13;;;4.00;99.90;;;;;;6340456;22;20149;-84
2022/03/01 08:52:26;;;;;;;17.07;9.57;;;4.10;99.90;;;;;;6340711;22;20239;-85
2022/03/01 08:54:52;;;;;;;21.97;9.37;;;4.10;99.90;;;;;;6340256;22;20206;-85
2022/03/01 08:57:18;;;;;;;21.63;9.87;;;4.10;99.90;;;;;;6340752;22;20239;-84
2022/03/01 08:59:44;;;;;;;15.93;9.63;;;4.20;99.90;;;;;;6340760;22;20236;-84
2022/03/01 09:02:09;;;;;;;15.97;9.63;;;4.20;99.90;;;;;;6340025;22;20177;-85
2022/03/01 09:04:35;;;;;;;20.07;9.80;;;4.20;99.90;;;;;;6340118;22;20489;-85
2022/03/01 09:07:03;;;;;;;14.97;8.83;;;4.30;99.90;;;;;;6340730;22;20209;-85
2022/03/01 09:09:30;;;;;;;13.73;9.30;;;4.30;99.90;;;;;;6340090;22;20153;-85
2022/03/01 09:11:55;;;;;;;16.50;9.17;;;4.30;99.90;;;;;;6340034;22;20184;-85
2022/03/01 09:14:21;;;;;;;14.97;8.23;;;4.30;99.90;;;;;;6339448;22;20495;-85
2022/03/01 09:16:46;;;;;;;13.77;8.73;;;4.30;99.90;;;;;;6339855;22;20241;-85
2022/03/01 09:19:14;;;;;;;16.33;9.43;;;4.30;99.90;;;;;;6341221;22;20157;-86
2022/03/01 09:21:40;;;;;;;13.10;8.47;;;4.20;99.90;;;;;;6339549;22;20190;-85
2022/03/01 09:24:05;;;;;;;19.43;9.27;;;4.20;99.90;;;;;;6340191;22;20184;-85
2022/03/01 09:26:31;;;;;;;17.30;9.70;;;4.20;99.90;;;;;;6343060;22;20157;-85
2022/03/01 09:28:56;;;;;;;18.57;9.53;;;4.30;99.90;;;;;;6342437;22;20206;-84
2022/03/01 09:31:22;;;;;;;14.60;8.30;;;4.40;99.90;;;;;;6341432;22;20168;-85
2022/03/01 09:33:47;;;;;;;10.80;7.40;;;4.50;99.90;;;;;;6342041;22;20193;-84
2022/03/01 09:36:13;;;;;;;15.17;9.10;;;4.90;99.90;;;;;;6341229;22;20158;-84
2022/03/01 09:38:40;;;;;;;16.13;8.77;;;5.00;99.90;;;;;;6342450;22;20236;-85
2022/03/01 09:41:06;;;;;;;13.80;8.27;;;5.30;99.90;;;;;;6316344;22;20183;-85
2022/03/01 09:43:36;;;;;;;10.83;7.00;;;5.60;99.90;;;;;;6345209;22;20201;-85
2022/03/01 09:46:02;;;;;;;12.07;8.10;;;5.90;99.90;;;;;;6343843;22;20142;-86
2022/03/01 09:48:27;;;;;;;15.53;8.67;;;6.10;99.90;;;;;;6344017;22;20188;-86
2022/03/01 09:50:54;;;;;;;15.10;9.03;;;6.30;99.90;;;;;;6343771;22;20213;-86
2022/03/01 09:53:20;;;;;;;12.80;7.07;;;6.40;99.90;;;;;;6347137;22;20172;-86
2022/03/01 09:55:45;;;;;;;14.83;8.40;;;6.50;99.90;;;;;;6352615;22;20185;-85
2022/03/01 09:58:12;;;;;;;10.80;6.67;;;6.50;99.90;;;;;;6351078;22;20153;-83
2022/03/01 10:00:38;;;;;;;14.73;8.70;;;6.50;99.90;;;;;;6351744;22;20507;-85
2022/03/01 10:03:03;;;;;;;14.43;8.57;;;6.50;99.90;;;;;;6353790;22;20240;-84
2022/03/01 10:05:40;;;;;;;14.23;8.77;;;6.50;99.90;;;;;;6354112;22;20167;-85
2022/03/01 10:08:14;;;;;;;16.87;9.23;;;6.60;99.90;;;;;;6355308;22;20175;-84
2022/03/01 10:10:46;;;;;;;20.80;8.90;;;6.60;99.90;;;;;;6355513;22;20161;-85
2022/03/01 10:13:14;;;;;;;18.27;9.03;;;6.70;99.90;;;;;;6356909;22;20317;-85
2022/03/01 10:15:40;;;;;;;19.50;9.83;;;6.70;99.90;;;;;;6357486;22;20159;-82
2022/03/01 10:18:15;;;;;;;18.27;7.90;;;6.80;99.90;;;;;;6358927;22;20165;-82
2022/03/01 10:20:44;;;;;;;14.77;9.10;;;6.80;99.90;;;;;;6356073;22;20139;-84
2022/03/01 10:23:11;;;;;;;13.43;8.90;;;6.90;99.90;;;;;;6352268;22;20191;-87
2022/03/01 10:25:39;;;;;;;19.73;8.87;;;7.00;99.90;;;;;;6340347;22;20527;-83
2022/03/01 10:28:05;;;;;;;21.60;9.70;;;7.10;99.90;;;;;;6339983;22;20192;-84
2022/03/01 10:30:34;;;;;;;12.43;8.23;;;7.30;99.90;;;;;;6341365;22;20160;-85
2022/03/01 10:33:12;;;;;;;17.30;8.67;;;7.30;99.90;;;;;;6339897;22;20257;-83
2022/03/01 10:35:43;;;;;;;14.63;9.67;;;7.40;99.90;;;;;;6340465;22;20220;-83
2022/03/01 10:38:10;;;;;;;17.97;9.20;;;7.50;99.90;;;;;;6340512;22;20154;-84
2022/03/01 10:40:38;;;;;;;13.47;9.53;;;7.60;99.90;;;;;;6340049;22;20160;-84
2022/03/01 10:43:05;;;;;;;14.63;8.60;;;7.70;99.90;;;;;;6339991;22;20180;-84
2022/03/01 10:45:33;;;;;;;13.37;7.97;;;7.80;99.90;;;;;;6340059;22;20167;-84
2022/03/01 10:47:58;;;;;;;25.70;9.03;;;7.80;99.90;;;;;;6341720;22;20274;-84
2022/03/01 10:50:24;;;;;;;13.60;8.50;;;7.80;99.90;;;;;;6339401;22;20157;-85
2022/03/01 10:52:50;;;;;;;15.87;8.40;;;7.90;99.90;;;;;;6342497;22;20174;-84
2022/03/01 10:55:24;;;;;;;13.70;8.87;;;7.90;99.90;;;;;;6344748;22;20606;-84
2022/03/01 10:58:10;;;;;;;12.77;8.17;;;7.90;99.90;;;;;;6347097;22;20179;-84
2022/03/01 11:00:37;;;;;;;11.47;7.67;;;8.00;99.90;;;;;;6345005;22;20146;-84
2022/03/01 11:03:08;;;;;;;11.50;7.13;;;8.10;99.90;;;;;;6344434;22;20189;-84
2022/03/01 11:05:34;;;;;;;14.87;8.13;;;8.10;99.90;;;;;;6340398;22;20157;-85
2022/03/01 11:08:03;;;;;;;14.30;8.07;;;8.20;99.90;;;;;;6340637;22;20189;-84
2022/03/01 11:10:32;;;;;;;13.43;8.13;;;8.30;99.90;;;;;;6340653;22;20209;-84
2022/03/01 11:13:00;;;;;;;9.83;7.03;;;8.30;99.90;;;;;;6340773;22;20200;-84
2022/03/01 11:16:09;;;;;;;14.23;8.33;;;9.10;99.90;;;;;;6340243;22;20161;-84
2022/03/01 11:18:57;;;;;;;17.67;8.27;;;8.50;99.90;;;;;;6341839;22;20497;-84
2022/03/01 11:21:24;;;;;;;14.57;8.90;;;8.50;99.90;;;;;;6341585;22;20149;-85
2022/03/01 11:23:53;;;;;;;11.30;7.53;;;8.50;99.90;;;;;;6342511;22;20177;-85
2022/03/01 11:26:19;;;;;;;12.07;7.87;;;10.90;99.90;;;;;;6344238;22;20591;-84
2022/03/01 11:28:53;;;;;;;12.43;6.57;;;8.70;99.90;;;;;;6344862;22;20234;-85
2022/03/01 11:31:27;;;;;;;13.20;7.80;;;8.80;99.90;;;;;;6342689;22;20260;-84
2022/03/01 11:34:02;;;;;;;13.17;7.20;;;8.80;99.90;;;;;;6346258;22;20239;-85
2022/03/01 11:36:30;;;;;;;13.50;8.17;;;8.90;99.90;;;;;;6348969;22;20206;-85
2022/03/01 11:39:17;;;;;;;14.50;8.87;;;8.80;99.90;;;;;;6346999;22;20154;-85
2022/03/01 11:41:46;;;;;;;19.80;8.90;;;9.00;99.90;;;;;;6344781;22;20161;-86
2022/03/01 11:44:17;;;;;;;14.53;8.93;;;9.00;99.90;;;;;;6344941;22;20162;-87
2022/03/01 11:46:43;;;;;;;18.23;9.47;;;9.60;99.90;;;;;;6343793;22;20165;-85
2022/03/01 11:49:11;;;;;;;15.57;9.50;;;9.10;99.90;;;;;;6343829;22;20157;-86
2022/03/01 11:51:40;;;;;;;16.00;9.20;;;9.10;99.90;;;;;;6342840;22;20162;-86
2022/03/01 11:54:09;;;;;;;11.70;7.83;;;9.20;99.90;;;;;;6345555;22;20221;-83
2022/03/01 11:56:37;;;;;;;13.20;8.50;;;9.80;99.90;;;;;;6344917;22;20149;-86
2022/03/01 11:59:12;;;;;;;13.70;8.90;;;9.50;99.90;;;;;;6345436;22;20163;-86
2022/03/01 12:01:38;;;;;;;13.07;8.67;;;9.50;99.90;;;;;;6344527;22;20158;-85
2022/03/01 12:04:07;;;;;;;15.27;9.30;;;9.60;99.90;;;;;;6343469;22;20225;-86
2022/03/01 12:06:35;;;;;;;17.17;9.03;;;9.60;99.90;;;;;;6345864;22;20164;-87
2022/03/01 12:09:05;;;;;;;13.60;8.17;;;9.70;99.90;;;;;;6345385;22;20172;-86
2022/03/01 12:11:42;;;;;;;12.83;8.60;;;11.00;99.90;;;;;;6344411;22;20156;-84
2022/03/01 12:14:10;;;;;;;14.40;8.20;;;9.80;99.90;;;;;;6347448;22;20149;-84
2022/03/01 12:16:37;;;;;;;12.73;8.27;;;9.90;99.90;;;;;;6347930;22;20206;-86
2022/03/01 12:19:19;;;;;;;13.50;8.43;;;10.00;99.90;;;;;;6345060;22;20213;-85
2022/03/01 12:21:55;;;;;;;15.13;9.37;;;10.10;99.90;;;;;;6345294;22;20471;-86
2022/03/01 12:24:23;;;;;;;21.53;9.70;;;10.20;99.90;;;;;;6346481;22;20149;-85
2022/03/01 12:27:00;;;;;;;14.00;9.07;;;10.20;99.90;;;;;;6348814;22;20177;-86
2022/03/01 12:29:29;;;;;;;12.50;8.27;;;10.30;99.90;;;;;;6345405;22;20599;-86
2022/03/01 12:32:10;;;;;;;11.10;7.93;;;10.40;99.90;;;;;;6345386;22;20199;-87
2022/03/01 12:34:38;;;;;;;14.37;8.37;;;10.60;99.90;;;;;;6346082;22;20164;-87
2022/03/01 12:37:05;;;;;;;11.83;7.97;;;10.80;99.90;;;;;;6319138;22;20591;-86
2022/03/01 12:39:32;;;;;;;12.60;7.97;;;11.50;99.90;;;;;;6347823;22;20181;-88
2022/03/01 12:41:58;;;;;;;12.87;9.33;;;11.00;99.90;;;;;;6354586;22;20172;-86
2022/03/01 12:44:29;;;;;;;13.13;8.07;;;11.00;99.90;;;;;;6346973;22;20142;-87
2022/03/01 12:46:57;;;;;;;14.73;8.30;;;12.20;99.90;;;;;;6345859;22;20260;-87